sensor_id;sensor_type;location;lat;lon;timestamp;temperature;humidity
46706;DHT22;33519;50.712;7.124;2022-12-10T00:01:08;-0.50;99.90
46706;DHT22;33519;50.712;7.124;2022-12-10T00:03:35;-0.50;99.90
46706;DHT22;33519;50.712;7.124;2022-12-10T00:06:04;-0.40;99.90
46706;DHT22;33519;50.712;7.124;2022-12-10T00:08:32;-0.50;99.90
46706;DHT22;33519;50.712;7.124;2022-12-10T00:10:59;-0.50;99.90
46706;DHT22;33519;50.712;7.124;2022-12-10T00:13:26;-0.60;99.90
46706;DHT22;33519;50.712;7.124;2022-12-10T00:15:52;-0.60;99.90
46706;DHT22;33519;50.712;7.124;2022-12-10T00:18:19;-0.40;99.90
46706;DHT22;33519;50.712;7.124;2022-12-10T00:20:46;-0.40;99.90
46706;DHT22;33519;50.712;7.124;2022-12-10T00:23:12;-0.30;99.90
46706;DHT22;33519;50.712;7.124;2022-12-10T00:25:45;-0.30;99.90
46706;DHT22;33519;50.712;7.124;2022-12-10T00:28:12;-0.40;99.90
46706;DHT22;33519;50.712;7.124;2022-12-10T00:30:39;-0.30;99.90
46706;DHT22;33519;50.712;7.124;2022-12-10T00:33:05;-0.20;99.90
46706;DHT22;33519;50.712;7.124;2022-12-10T00:35:35;-0.10;99.90
46706;DHT22;33519;50.712;7.124;2022-12-10T00:38:03;-0.20;99.90
46706;DHT22;33519;50.712;7.124;2022-12-10T00:40:30;-0.20;99.90
46706;DHT22;33519;50.712;7.124;2022-12-10T00:42:56;-0.20;99.90
46706;DHT22;33519;50.712;7.124;2022-12-10T00:45:23;-0.10;99.90
46706;DHT22;33519;50.712;7.124;2022-12-10T00:47:49;-0.10;99.90
46706;DHT22;33519;50.712;7.124;2022-12-10T00:50:16;-0.10;99.90
46706;DHT22;33519;50.712;7.124;2022-12-10T00:52:43;0.00;99.90
46706;DHT22;33519;50.712;7.124;2022-12-10T00:55:09;0.00;99.90
46706;DHT22;33519;50.712;7.124;2022-12-10T00:57:36;-0.10;99.90
46706;DHT22;33519;50.712;7.124;2022-12-10T01:00:03;-0.10;99.90
46706;DHT22;33519;50.712;7.124;2022-12-10T01:02:30;-0.10;99.90
46706;DHT22;33519;50.712;7.124;2022-12-10T01:04:57;0.00;99.90
46706;DHT22;33519;50.712;7.124;2022-12-10T01:07:24;0.00;99.90
46706;DHT22;33519;50.712;7.124;2022-12-10T01:09:50;0.10;99.90
46706;DHT22;33519;50.712;7.124;2022-12-10T01:12:17;0.10;99.90
46706;DHT22;33519;50.712;7.124;2022-12-10T01:14:44;0.10;99.90
46706;DHT22;33519;50.712;7.124;2022-12-10T01:17:10;0.10;99.90
46706;DHT22;33519;50.712;7.124;2022-12-10T01:19:37;0.10;99.90
46706;DHT22;33519;50.712;7.124;2022-12-10T01:22:04;0.10;99.90
46706;DHT22;33519;50.712;7.124;2022-12-10T01:24:31;0.20;99.90
46706;DHT22;33519;50.712;7.124;2022-12-10T01:26:58;0.10;99.90
46706;DHT22;33519;50.712;7.124;2022-12-10T01:31:56;0.10;99.90
46706;DHT22;33519;50.712;7.124;2022-12-10T01:34:23;0.20;99.90
46706;DHT22;33519;50.712;7.124;2022-12-10T01:36:52;0.10;99.90
46706;DHT22;33519;50.712;7.124;2022-12-10T01:39:21;0.10;99.90
46706;DHT22;33519;50.712;7.124;2022-12-10T01:41:55;0.10;99.90
46706;DHT22;33519;50.712;7.124;2022-12-10T01:46:51;0.20;99.90
46706;DHT22;33519;50.712;7.124;2022-12-10T01:49:24;0.20;99.90
46706;DHT22;33519;50.712;7.124;2022-12-10T01:51:53;0.20;99.90
46706;DHT22;33519;50.712;7.124;2022-12-10T01:54:24;0.10;99.90
46706;DHT22;33519;50.712;7.124;2022-12-10T02:02:33;0.10;99.90
46706;DHT22;33519;50.712;7.124;2022-12-10T02:05:28;0.10;99.90
46706;DHT22;33519;50.712;7.124;2022-12-10T02:08:05;0.10;99.90
46706;DHT22;33519;50.712;7.124;2022-12-10T02:13:35;0.00;99.90
46706;DHT22;33519;50.712;7.124;2022-12-10T02:16:14;0.00;99.90
46706;DHT22;33519;50.712;7.124;2022-12-10T02:18:42;0.00;99.90
46706;DHT22;33519;50.712;7.124;2022-12-10T02:21:25;0.00;99.90
46706;DHT22;33519;50.712;7.124;2022-12-10T02:23:59;0.00;99.90
46706;DHT22;33519;50.712;7.124;2022-12-10T02:26:30;0.00;99.90
46706;DHT22;33519;50.712;7.124;2022-12-10T02:29:10;0.00;99.90
46706;DHT22;33519;50.712;7.124;2022-12-10T02:31:42;0.10;99.90
46706;DHT22;33519;50.712;7.124;2022-12-10T02:34:11;0.10;99.90
46706;DHT22;33519;50.712;7.124;2022-12-10T02:36:42;0.10;99.90
46706;DHT22;33519;50.712;7.124;2022-12-10T02:39:13;0.20;99.90
46706;DHT22;33519;50.712;7.124;2022-12-10T02:41:43;0.20;99.90
46706;DHT22;33519;50.712;7.124;2022-12-10T02:44:13;0.30;99.90
46706;DHT22;33519;50.712;7.124;2022-12-10T02:46:41;0.20;99.90
46706;DHT22;33519;50.712;7.124;2022-12-10T02:49:12;0.10;99.90
46706;DHT22;33519;50.712;7.124;2022-12-10T02:51:40;0.10;99.90
46706;DHT22;33519;50.712;7.124;2022-12-10T02:54:43;0.10;99.90
46706;DHT22;33519;50.712;7.124;2022-12-10T03:03:11;0.00;99.90
46706;DHT22;33519;50.712;7.124;2022-12-10T03:08:27;0.10;99.90
46706;DHT22;33519;50.712;7.124;2022-12-10T03:13:47;0.10;99.90
46706;DHT22;33519;50.712;7.124;2022-12-10T03:16:16;0.10;99.90
46706;DHT22;33519;50.712;7.124;2022-12-10T03:18:44;0.10;99.90
46706;DHT22;33519;50.712;7.124;2022-12-10T03:21:13;0.10;99.90
46706;DHT22;33519;50.712;7.124;2022-12-10T03:23:42;0.10;99.90
46706;DHT22;33519;50.712;7.124;2022-12-10T03:26:15;0.10;99.90
46706;DHT22;33519;50.712;7.124;2022-12-10T03:28:48;0.10;99.90
46706;DHT22;33519;50.712;7.124;2022-12-10T03:31:17;0.10;99.90
46706;DHT22;33519;50.712;7.124;2022-12-10T03:33:45;0.10;99.90
46706;DHT22;33519;50.712;7.124;2022-12-10T03:36:14;0.20;99.90
46706;DHT22;33519;50.712;7.124;2022-12-10T03:38:41;0.20;99.90
46706;DHT22;33519;50.712;7.124;2022-12-10T03:41:08;0.10;99.90
46706;DHT22;33519;50.712;7.124;2022-12-10T03:43:35;0.10;99.90
46706;DHT22;33519;50.712;7.124;2022-12-10T03:46:02;0.20;99.90
46706;DHT22;33519;50.712;7.124;2022-12-10T03:48:28;0.20;99.90
46706;DHT22;33519;50.712;7.124;2022-12-10T03:50:55;0.10;99.90
46706;DHT22;33519;50.712;7.124;2022-12-10T03:53:22;0.10;99.90
46706;DHT22;33519;50.712;7.124;2022-12-10T03:55:48;0.10;99.90
46706;DHT22;33519;50.712;7.124;2022-12-10T03:58:15;0.00;99.90
46706;DHT22;33519;50.712;7.124;2022-12-10T04:00:46;0.00;99.90
46706;DHT22;33519;50.712;7.124;2022-12-10T04:03:15;0.00;99.90
46706;DHT22;33519;50.712;7.124;2022-12-10T04:05:42;0.00;99.90
46706;DHT22;33519;50.712;7.124;2022-12-10T04:08:08;0.00;99.90
46706;DHT22;33519;50.712;7.124;2022-12-10T04:10:36;0.10;99.90
46706;DHT22;33519;50.712;7.124;2022-12-10T04:13:03;0.00;99.90
46706;DHT22;33519;50.712;7.124;2022-12-10T04:15:49;0.10;99.90
46706;DHT22;33519;50.712;7.124;2022-12-10T04:18:34;0.10;99.90
46706;DHT22;33519;50.712;7.124;2022-12-10T04:21:01;0.10;99.90
46706;DHT22;33519;50.712;7.124;2022-12-10T04:23:46;0.10;99.90
46706;DHT22;33519;50.712;7.124;2022-12-10T04:26:42;0.10;99.90
46706;DHT22;33519;50.712;7.124;2022-12-10T04:29:23;0.00;99.90
46706;DHT22;33519;50.712;7.124;2022-12-10T04:31:51;0.00;99.90
46706;DHT22;33519;50.712;7.124;2022-12-10T04:34:18;-0.20;99.90
46706;DHT22;33519;50.712;7.124;2022-12-10T04:36:44;-0.20;99.90
46706;DHT22;33519;50.712;7.124;2022-12-10T04:39:11;-0.20;99.90
46706;DHT22;33519;50.712;7.124;2022-12-10T04:41:44;-0.20;99.90
46706;DHT22;33519;50.712;7.124;2022-12-10T04:44:11;-0.20;99.90
46706;DHT22;33519;50.712;7.124;2022-12-10T04:46:38;-0.30;99.90
46706;DHT22;33519;50.712;7.124;2022-12-10T04:49:06;-0.20;99.90
46706;DHT22;33519;50.712;7.124;2022-12-10T04:51:33;-0.30;99.90
46706;DHT22;33519;50.712;7.124;2022-12-10T04:54:00;-0.30;99.90
46706;DHT22;33519;50.712;7.124;2022-12-10T04:56:27;-0.20;99.90
46706;DHT22;33519;50.712;7.124;2022-12-10T04:58:56;-0.30;99.90
46706;DHT22;33519;50.712;7.124;2022-12-10T05:01:23;-0.30;99.90
46706;DHT22;33519;50.712;7.124;2022-12-10T05:03:50;-0.30;99.90
46706;DHT22;33519;50.712;7.124;2022-12-10T05:06:18;-0.30;99.90
46706;DHT22;33519;50.712;7.124;2022-12-10T05:08:45;-0.20;99.90
46706;DHT22;33519;50.712;7.124;2022-12-10T05:11:14;-0.20;99.90
46706;DHT22;33519;50.712;7.124;2022-12-10T05:13:42;-0.30;99.90
46706;DHT22;33519;50.712;7.124;2022-12-10T05:16:11;-0.20;99.90
46706;DHT22;33519;50.712;7.124;2022-12-10T05:18:38;-0.20;99.90
46706;DHT22;33519;50.712;7.124;2022-12-10T05:21:07;-0.20;99.90
46706;DHT22;33519;50.712;7.124;2022-12-10T05:23:39;-0.30;99.90
46706;DHT22;33519;50.712;7.124;2022-12-10T05:26:09;-0.30;99.90
46706;DHT22;33519;50.712;7.124;2022-12-10T05:28:41;-0.30;99.90
46706;DHT22;33519;50.712;7.124;2022-12-10T05:31:23;-0.20;99.90
46706;DHT22;33519;50.712;7.124;2022-12-10T05:33:50;-0.20;99.90
46706;DHT22;33519;50.712;7.124;2022-12-10T05:36:20;-0.20;99.90
46706;DHT22;33519;50.712;7.124;2022-12-10T05:38:48;-0.20;99.90
46706;DHT22;33519;50.712;7.124;2022-12-10T05:41:18;-0.20;99.90
46706;DHT22;33519;50.712;7.124;2022-12-10T05:43:45;-0.20;99.90
46706;DHT22;33519;50.712;7.124;2022-12-10T05:46:18;-0.10;99.90
46706;DHT22;33519;50.712;7.124;2022-12-10T05:48:45;-0.10;99.90
46706;DHT22;33519;50.712;7.124;2022-12-10T05:51:15;-0.10;99.90
46706;DHT22;33519;50.712;7.124;2022-12-10T05:53:42;-0.10;99.90
46706;DHT22;33519;50.712;7.124;2022-12-10T05:56:11;-0.20;99.90
46706;DHT22;33519;50.712;7.124;2022-12-10T05:58:40;-0.10;99.90
46706;DHT22;33519;50.712;7.124;2022-12-10T06:01:18;-0.10;99.90
46706;DHT22;33519;50.712;7.124;2022-12-10T06:03:45;-0.10;99.90
46706;DHT22;33519;50.712;7.124;2022-12-10T06:06:13;-0.10;99.90
46706;DHT22;33519;50.712;7.124;2022-12-10T06:08:40;-0.20;99.90
46706;DHT22;33519;50.712;7.124;2022-12-10T06:11:09;-0.20;99.90
46706;DHT22;33519;50.712;7.124;2022-12-10T06:13:37;-0.30;99.90
46706;DHT22;33519;50.712;7.124;2022-12-10T06:16:05;-0.20;99.90
46706;DHT22;33519;50.712;7.124;2022-12-10T06:18:32;-0.30;99.90
46706;DHT22;33519;50.712;7.124;2022-12-10T06:21:05;-0.40;99.90
46706;DHT22;33519;50.712;7.124;2022-12-10T06:23:38;-0.40;99.90
46706;DHT22;33519;50.712;7.124;2022-12-10T06:26:09;-0.40;99.90
46706;DHT22;33519;50.712;7.124;2022-12-10T06:28:37;-0.40;99.90
46706;DHT22;33519;50.712;7.124;2022-12-10T06:31:04;-0.40;99.90
46706;DHT22;33519;50.712;7.124;2022-12-10T06:33:31;-0.50;99.90
46706;DHT22;33519;50.712;7.124;2022-12-10T06:35:58;-0.50;99.90
46706;DHT22;33519;50.712;7.124;2022-12-10T06:38:25;-0.50;99.90
46706;DHT22;33519;50.712;7.124;2022-12-10T06:40:52;-0.50;99.90
46706;DHT22;33519;50.712;7.124;2022-12-10T06:43:19;-0.50;99.90
46706;DHT22;33519;50.712;7.124;2022-12-10T06:45:45;-0.50;99.90
46706;DHT22;33519;50.712;7.124;2022-12-10T06:48:12;-0.50;99.90
46706;DHT22;33519;50.712;7.124;2022-12-10T06:50:38;-0.50;99.90
46706;DHT22;33519;50.712;7.124;2022-12-10T06:53:05;-0.50;99.90
46706;DHT22;33519;50.712;7.124;2022-12-10T06:55:32;-0.50;99.90
46706;DHT22;33519;50.712;7.124;2022-12-10T06:57:58;-0.50;99.90
46706;DHT22;33519;50.712;7.124;2022-12-10T07:00:25;-0.50;99.90
46706;DHT22;33519;50.712;7.124;2022-12-10T07:02:52;-0.50;99.90
46706;DHT22;33519;50.712;7.124;2022-12-10T07:05:19;-0.40;99.90
46706;DHT22;33519;50.712;7.124;2022-12-10T07:07:45;-0.40;99.90
46706;DHT22;33519;50.712;7.124;2022-12-10T07:10:12;-0.40;99.90
46706;DHT22;33519;50.712;7.124;2022-12-10T07:12:39;-0.30;99.90
46706;DHT22;33519;50.712;7.124;2022-12-10T07:15:06;-0.30;99.90
46706;DHT22;33519;50.712;7.124;2022-12-10T07:17:33;-0.20;99.90
46706;DHT22;33519;50.712;7.124;2022-12-10T07:20:00;-0.20;99.90
46706;DHT22;33519;50.712;7.124;2022-12-10T07:22:26;-0.20;99.90
46706;DHT22;33519;50.712;7.124;2022-12-10T07:24:53;-0.20;99.90
46706;DHT22;33519;50.712;7.124;2022-12-10T07:27:20;-0.20;99.90
46706;DHT22;33519;50.712;7.124;2022-12-10T07:29:46;-0.10;99.90
46706;DHT22;33519;50.712;7.124;2022-12-10T07:32:13;-0.20;99.90
46706;DHT22;33519;50.712;7.124;2022-12-10T07:34:40;-0.30;99.90
46706;DHT22;33519;50.712;7.124;2022-12-10T07:37:06;-0.30;99.90
46706;DHT22;33519;50.712;7.124;2022-12-10T07:39:33;-0.20;99.90
46706;DHT22;33519;50.712;7.124;2022-12-10T07:42:00;-0.20;99.90
46706;DHT22;33519;50.712;7.124;2022-12-10T07:44:26;-0.20;99.90
46706;DHT22;33519;50.712;7.124;2022-12-10T07:46:54;-0.20;99.90
46706;DHT22;33519;50.712;7.124;2022-12-10T07:49:21;-0.20;99.90
46706;DHT22;33519;50.712;7.124;2022-12-10T07:51:49;-0.20;99.90
46706;DHT22;33519;50.712;7.124;2022-12-10T07:54:16;-0.20;99.90
46706;DHT22;33519;50.712;7.124;2022-12-10T07:56:46;-0.10;99.90
46706;DHT22;33519;50.712;7.124;2022-12-10T07:59:13;0.00;99.90
46706;DHT22;33519;50.712;7.124;2022-12-10T08:01:40;-0.10;99.90
46706;DHT22;33519;50.712;7.124;2022-12-10T08:04:07;0.00;99.90
46706;DHT22;33519;50.712;7.124;2022-12-10T08:06:34;0.10;99.90
46706;DHT22;33519;50.712;7.124;2022-12-10T08:09:01;0.20;99.90
46706;DHT22;33519;50.712;7.124;2022-12-10T08:11:28;0.20;99.90
46706;DHT22;33519;50.712;7.124;2022-12-10T08:13:55;0.20;99.90
46706;DHT22;33519;50.712;7.124;2022-12-10T08:16:25;0.30;99.90
46706;DHT22;33519;50.712;7.124;2022-12-10T08:18:54;0.30;99.90
46706;DHT22;33519;50.712;7.124;2022-12-10T08:21:23;0.30;99.90
46706;DHT22;33519;50.712;7.124;2022-12-10T08:23:50;0.30;99.90
46706;DHT22;33519;50.712;7.124;2022-12-10T08:26:22;0.30;99.90
46706;DHT22;33519;50.712;7.124;2022-12-10T08:28:51;0.30;99.90
46706;DHT22;33519;50.712;7.124;2022-12-10T08:31:19;0.30;99.90
46706;DHT22;33519;50.712;7.124;2022-12-10T08:33:46;0.40;99.90
46706;DHT22;33519;50.712;7.124;2022-12-10T08:36:14;0.40;99.90
46706;DHT22;33519;50.712;7.124;2022-12-10T08:38:41;0.50;99.90
46706;DHT22;33519;50.712;7.124;2022-12-10T08:41:11;0.60;99.90
46706;DHT22;33519;50.712;7.124;2022-12-10T08:43:38;0.50;99.90
46706;DHT22;33519;50.712;7.124;2022-12-10T08:46:05;0.40;99.90
46706;DHT22;33519;50.712;7.124;2022-12-10T08:48:32;0.50;99.90
46706;DHT22;33519;50.712;7.124;2022-12-10T08:50:59;0.60;99.90
46706;DHT22;33519;50.712;7.124;2022-12-10T08:53:26;0.60;99.90
46706;DHT22;33519;50.712;7.124;2022-12-10T08:55:53;0.70;99.90
46706;DHT22;33519;50.712;7.124;2022-12-10T08:58:20;0.80;99.90
46706;DHT22;33519;50.712;7.124;2022-12-10T09:00:48;0.80;99.90
46706;DHT22;33519;50.712;7.124;2022-12-10T09:03:15;0.80;99.90
46706;DHT22;33519;50.712;7.124;2022-12-10T09:05:42;0.90;99.90
46706;DHT22;33519;50.712;7.124;2022-12-10T09:08:09;1.00;99.90
46706;DHT22;33519;50.712;7.124;2022-12-10T09:10:40;0.90;99.90
46706;DHT22;33519;50.712;7.124;2022-12-10T09:13:07;0.80;99.90
46706;DHT22;33519;50.712;7.124;2022-12-10T09:15:34;0.80;99.90
46706;DHT22;33519;50.712;7.124;2022-12-10T09:18:01;0.80;99.90
46706;DHT22;33519;50.712;7.124;2022-12-10T09:20:27;0.80;99.90
46706;DHT22;33519;50.712;7.124;2022-12-10T09:22:54;0.70;99.90
46706;DHT22;33519;50.712;7.124;2022-12-10T09:25:21;0.70;99.90
46706;DHT22;33519;50.712;7.124;2022-12-10T09:27:48;0.70;99.90
46706;DHT22;33519;50.712;7.124;2022-12-10T09:30:15;0.70;99.90
46706;DHT22;33519;50.712;7.124;2022-12-10T09:32:42;0.70;99.90
46706;DHT22;33519;50.712;7.124;2022-12-10T09:35:08;0.80;99.90
46706;DHT22;33519;50.712;7.124;2022-12-10T09:37:35;0.80;99.90
46706;DHT22;33519;50.712;7.124;2022-12-10T09:40:02;0.80;99.90
46706;DHT22;33519;50.712;7.124;2022-12-10T09:42:53;0.70;99.90
46706;DHT22;33519;50.712;7.124;2022-12-10T09:48:56;0.70;99.90
46706;DHT22;33519;50.712;7.124;2022-12-10T09:51:30;0.80;99.90
46706;DHT22;33519;50.712;7.124;2022-12-10T09:53:59;0.80;99.90
46706;DHT22;33519;50.712;7.124;2022-12-10T09:56:34;0.80;99.90
46706;DHT22;33519;50.712;7.124;2022-12-10T09:59:22;0.70;99.90
46706;DHT22;33519;50.712;7.124;2022-12-10T10:02:02;0.80;99.90
46706;DHT22;33519;50.712;7.124;2022-12-10T10:04:29;0.90;99.90
46706;DHT22;33519;50.712;7.124;2022-12-10T10:06:56;0.80;99.90
46706;DHT22;33519;50.712;7.124;2022-12-10T10:09:24;0.90;99.90
46706;DHT22;33519;50.712;7.124;2022-12-10T10:11:51;1.00;99.90
46706;DHT22;33519;50.712;7.124;2022-12-10T10:14:25;1.00;99.90
46706;DHT22;33519;50.712;7.124;2022-12-10T10:17:02;1.20;99.90
46706;DHT22;33519;50.712;7.124;2022-12-10T10:19:31;1.20;99.90
46706;DHT22;33519;50.712;7.124;2022-12-10T10:22:00;1.20;99.90
46706;DHT22;33519;50.712;7.124;2022-12-10T10:24:34;1.00;99.90
46706;DHT22;33519;50.712;7.124;2022-12-10T10:29:45;1.10;99.90
46706;DHT22;33519;50.712;7.124;2022-12-10T10:35:00;1.20;99.90
46706;DHT22;33519;50.712;7.124;2022-12-10T10:37:30;1.20;99.90
46706;DHT22;33519;50.712;7.124;2022-12-10T10:39:58;1.20;99.90
46706;DHT22;33519;50.712;7.124;2022-12-10T10:42:35;1.30;99.90
46706;DHT22;33519;50.712;7.124;2022-12-10T10:45:05;1.30;99.90
46706;DHT22;33519;50.712;7.124;2022-12-10T10:47:34;1.20;99.90
46706;DHT22;33519;50.712;7.124;2022-12-10T10:50:04;1.20;99.90
46706;DHT22;33519;50.712;7.124;2022-12-10T10:52:37;1.10;99.90
46706;DHT22;33519;50.712;7.124;2022-12-10T10:55:05;1.00;99.90
46706;DHT22;33519;50.712;7.124;2022-12-10T10:57:36;0.90;99.90
46706;DHT22;33519;50.712;7.124;2022-12-10T11:02:36;1.10;99.90
46706;DHT22;33519;50.712;7.124;2022-12-10T11:05:15;1.10;99.90
46706;DHT22;33519;50.712;7.124;2022-12-10T11:07:43;1.10;99.90
46706;DHT22;33519;50.712;7.124;2022-12-10T11:10:24;0.90;99.90
46706;DHT22;33519;50.712;7.124;2022-12-10T11:15:32;1.00;99.90
46706;DHT22;33519;50.712;7.124;2022-12-10T11:18:00;1.10;99.90
46706;DHT22;33519;50.712;7.124;2022-12-10T11:20:31;1.00;99.90
46706;DHT22;33519;50.712;7.124;2022-12-10T11:23:10;0.90;99.90
46706;DHT22;33519;50.712;7.124;2022-12-10T11:25:48;0.80;99.90
46706;DHT22;33519;50.712;7.124;2022-12-10T11:28:47;0.80;99.90
46706;DHT22;33519;50.712;7.124;2022-12-10T11:31:44;1.00;99.90
46706;DHT22;33519;50.712;7.124;2022-12-10T11:34:21;1.00;99.90
46706;DHT22;33519;50.712;7.124;2022-12-10T11:39:54;0.80;99.90
46706;DHT22;33519;50.712;7.124;2022-12-10T11:43:00;1.00;99.90
46706;DHT22;33519;50.712;7.124;2022-12-10T11:48:10;1.10;99.90
46706;DHT22;33519;50.712;7.124;2022-12-10T11:50:44;1.20;99.90
46706;DHT22;33519;50.712;7.124;2022-12-10T11:53:33;1.20;99.90
46706;DHT22;33519;50.712;7.124;2022-12-10T12:04:23;1.10;99.90
46706;DHT22;33519;50.712;7.124;2022-12-10T12:06:58;1.40;99.90
46706;DHT22;33519;50.712;7.124;2022-12-10T12:09:40;1.20;99.90
46706;DHT22;33519;50.712;7.124;2022-12-10T12:18:00;1.40;99.90
46706;DHT22;33519;50.712;7.124;2022-12-10T12:20:38;1.60;99.90
46706;DHT22;33519;50.712;7.124;2022-12-10T12:23:15;1.70;99.90
46706;DHT22;33519;50.712;7.124;2022-12-10T12:25:47;1.80;99.90
46706;DHT22;33519;50.712;7.124;2022-12-10T12:28:22;1.60;99.90
46706;DHT22;33519;50.712;7.124;2022-12-10T12:33:42;1.50;99.90
46706;DHT22;33519;50.712;7.124;2022-12-10T12:36:15;1.50;99.90
46706;DHT22;33519;50.712;7.124;2022-12-10T12:38:49;1.50;99.90
46706;DHT22;33519;50.712;7.124;2022-12-10T12:44:07;1.50;99.90
46706;DHT22;33519;50.712;7.124;2022-12-10T12:49:27;1.40;99.90
46706;DHT22;33519;50.712;7.124;2022-12-10T12:52:02;1.60;99.90
46706;DHT22;33519;50.712;7.124;2022-12-10T12:54:30;1.80;99.90
46706;DHT22;33519;50.712;7.124;2022-12-10T12:57:06;1.70;99.90
46706;DHT22;33519;50.712;7.124;2022-12-10T12:59:56;1.80;99.90
46706;DHT22;33519;50.712;7.124;2022-12-10T13:02:49;1.90;99.90
46706;DHT22;33519;50.712;7.124;2022-12-10T13:05:27;2.00;99.90
46706;DHT22;33519;50.712;7.124;2022-12-10T13:08:41;2.10;99.90
46706;DHT22;33519;50.712;7.124;2022-12-10T13:14:02;2.10;99.90
46706;DHT22;33519;50.712;7.124;2022-12-10T13:19:33;2.30;99.90
46706;DHT22;33519;50.712;7.124;2022-12-10T13:22:04;2.40;99.90
46706;DHT22;33519;50.712;7.124;2022-12-10T13:27:29;2.60;99.90
46706;DHT22;33519;50.712;7.124;2022-12-10T13:30:00;2.70;99.90
46706;DHT22;33519;50.712;7.124;2022-12-10T13:37:54;2.70;99.90
46706;DHT22;33519;50.712;7.124;2022-12-10T13:40:38;2.60;99.90
46706;DHT22;33519;50.712;7.124;2022-12-10T13:43:37;2.60;99.90
46706;DHT22;33519;50.712;7.124;2022-12-10T13:46:33;2.70;99.90
46706;DHT22;33519;50.712;7.124;2022-12-10T13:49:02;2.80;99.90
46706;DHT22;33519;50.712;7.124;2022-12-10T13:51:36;2.60;99.90
46706;DHT22;33519;50.712;7.124;2022-12-10T13:54:35;2.50;99.90
46706;DHT22;33519;50.712;7.124;2022-12-10T13:59:59;2.10;99.90
46706;DHT22;33519;50.712;7.124;2022-12-10T14:02:47;1.90;99.90
46706;DHT22;33519;50.712;7.124;2022-12-10T14:08:15;1.80;99.90
46706;DHT22;33519;50.712;7.124;2022-12-10T14:10:43;1.70;99.90
46706;DHT22;33519;50.712;7.124;2022-12-10T14:13:13;1.70;99.90
46706;DHT22;33519;50.712;7.124;2022-12-10T14:15:50;1.60;99.90
46706;DHT22;33519;50.712;7.124;2022-12-10T14:18:18;1.60;99.90
46706;DHT22;33519;50.712;7.124;2022-12-10T14:20:47;1.50;99.90
46706;DHT22;33519;50.712;7.124;2022-12-10T14:23:25;1.50;99.90
46706;DHT22;33519;50.712;7.124;2022-12-10T14:26:09;1.40;99.90
46706;DHT22;33519;50.712;7.124;2022-12-10T14:28:54;1.50;99.90
46706;DHT22;33519;50.712;7.124;2022-12-10T14:33:55;1.50;99.90
46706;DHT22;33519;50.712;7.124;2022-12-10T14:36:37;1.50;99.90
46706;DHT22;33519;50.712;7.124;2022-12-10T14:39:21;1.60;99.90
46706;DHT22;33519;50.712;7.124;2022-12-10T14:41:50;1.60;99.90
46706;DHT22;33519;50.712;7.124;2022-12-10T14:44:18;1.60;99.90
46706;DHT22;33519;50.712;7.124;2022-12-10T14:46:47;1.50;99.90
46706;DHT22;33519;50.712;7.124;2022-12-10T14:49:23;1.40;99.90
46706;DHT22;33519;50.712;7.124;2022-12-10T14:51:50;1.30;99.90
46706;DHT22;33519;50.712;7.124;2022-12-10T14:54:33;1.30;99.90
46706;DHT22;33519;50.712;7.124;2022-12-10T14:57:06;1.20;99.90
46706;DHT22;33519;50.712;7.124;2022-12-10T15:02:26;1.10;99.90
46706;DHT22;33519;50.712;7.124;2022-12-10T15:04:54;1.10;99.90
46706;DHT22;33519;50.712;7.124;2022-12-10T15:07:24;1.00;99.90
46706;DHT22;33519;50.712;7.124;2022-12-10T15:09:53;1.00;99.90
46706;DHT22;33519;50.712;7.124;2022-12-10T15:12:30;0.90;99.90
46706;DHT22;33519;50.712;7.124;2022-12-10T15:15:07;0.90;99.90
46706;DHT22;33519;50.712;7.124;2022-12-10T15:17:42;0.90;99.90
46706;DHT22;33519;50.712;7.124;2022-12-10T15:20:19;0.80;99.90
46706;DHT22;33519;50.712;7.124;2022-12-10T15:22:46;0.90;99.90
46706;DHT22;33519;50.712;7.124;2022-12-10T15:25:20;0.80;99.90
46706;DHT22;33519;50.712;7.124;2022-12-10T15:27:55;0.80;99.90
46706;DHT22;33519;50.712;7.124;2022-12-10T15:30:32;0.70;99.90
46706;DHT22;33519;50.712;7.124;2022-12-10T15:32:58;0.70;99.90
46706;DHT22;33519;50.712;7.124;2022-12-10T15:35:26;0.60;99.90
46706;DHT22;33519;50.712;7.124;2022-12-10T15:37:56;0.60;99.90
46706;DHT22;33519;50.712;7.124;2022-12-10T15:40:30;0.50;99.90
46706;DHT22;33519;50.712;7.124;2022-12-10T15:45:50;0.40;99.90
46706;DHT22;33519;50.712;7.124;2022-12-10T15:48:17;0.40;99.90
46706;DHT22;33519;50.712;7.124;2022-12-10T15:50:50;0.40;99.90
46706;DHT22;33519;50.712;7.124;2022-12-10T15:53:26;0.50;99.90
46706;DHT22;33519;50.712;7.124;2022-12-10T15:56:03;0.40;99.90
46706;DHT22;33519;50.712;7.124;2022-12-10T15:58:30;0.40;99.90
46706;DHT22;33519;50.712;7.124;2022-12-10T16:00:57;0.40;99.90
46706;DHT22;33519;50.712;7.124;2022-12-10T16:03:26;0.50;99.90
46706;DHT22;33519;50.712;7.124;2022-12-10T16:05:54;0.50;99.90
46706;DHT22;33519;50.712;7.124;2022-12-10T16:08:25;0.60;99.90
46706;DHT22;33519;50.712;7.124;2022-12-10T16:11:01;0.60;99.90
46706;DHT22;33519;50.712;7.124;2022-12-10T16:13:31;0.60;99.90
46706;DHT22;33519;50.712;7.124;2022-12-10T16:16:02;0.50;99.90
46706;DHT22;33519;50.712;7.124;2022-12-10T16:18:30;0.50;99.90
46706;DHT22;33519;50.712;7.124;2022-12-10T16:21:00;0.50;99.90
46706;DHT22;33519;50.712;7.124;2022-12-10T16:23:26;0.50;99.90
46706;DHT22;33519;50.712;7.124;2022-12-10T16:25:53;0.40;99.90
46706;DHT22;33519;50.712;7.124;2022-12-10T16:28:21;0.40;99.90
46706;DHT22;33519;50.712;7.124;2022-12-10T16:30:53;0.40;99.90
46706;DHT22;33519;50.712;7.124;2022-12-10T16:33:22;0.40;99.90
46706;DHT22;33519;50.712;7.124;2022-12-10T16:35:50;0.40;99.90
46706;DHT22;33519;50.712;7.124;2022-12-10T16:38:18;0.40;99.90
46706;DHT22;33519;50.712;7.124;2022-12-10T16:40:46;0.40;99.90
46706;DHT22;33519;50.712;7.124;2022-12-10T16:43:21;0.40;99.90
46706;DHT22;33519;50.712;7.124;2022-12-10T16:45:49;0.30;99.90
46706;DHT22;33519;50.712;7.124;2022-12-10T16:48:16;0.30;99.90
46706;DHT22;33519;50.712;7.124;2022-12-10T16:50:44;0.30;99.90
46706;DHT22;33519;50.712;7.124;2022-12-10T16:53:19;0.30;99.90
46706;DHT22;33519;50.712;7.124;2022-12-10T16:55:47;0.20;99.90
46706;DHT22;33519;50.712;7.124;2022-12-10T16:58:14;0.20;99.90
46706;DHT22;33519;50.712;7.124;2022-12-10T17:00:46;0.20;99.90
46706;DHT22;33519;50.712;7.124;2022-12-10T17:03:19;0.10;99.90
46706;DHT22;33519;50.712;7.124;2022-12-10T17:05:55;0.10;99.90
46706;DHT22;33519;50.712;7.124;2022-12-10T17:08:23;0.10;99.90
46706;DHT22;33519;50.712;7.124;2022-12-10T17:10:50;0.10;99.90
46706;DHT22;33519;50.712;7.124;2022-12-10T17:13:36;0.10;99.90
46706;DHT22;33519;50.712;7.124;2022-12-10T17:16:04;0.10;99.90
46706;DHT22;33519;50.712;7.124;2022-12-10T17:18:33;0.10;99.90
46706;DHT22;33519;50.712;7.124;2022-12-10T17:21:00;0.10;99.90
46706;DHT22;33519;50.712;7.124;2022-12-10T17:23:27;0.20;99.90
46706;DHT22;33519;50.712;7.124;2022-12-10T17:25:53;0.20;99.90
46706;DHT22;33519;50.712;7.124;2022-12-10T17:28:21;0.20;99.90
46706;DHT22;33519;50.712;7.124;2022-12-10T17:30:49;0.20;99.90
46706;DHT22;33519;50.712;7.124;2022-12-10T17:33:18;0.20;99.90
46706;DHT22;33519;50.712;7.124;2022-12-10T17:35:46;0.20;99.90
46706;DHT22;33519;50.712;7.124;2022-12-10T17:38:16;0.30;99.90
46706;DHT22;33519;50.712;7.124;2022-12-10T17:40:43;0.30;99.90